sensor_id;sensor_type;location;lat;lon;timestamp;P1;durP1;ratioP1;P2;durP2;ratioP2
5979;SDS011;3016;50.308;8.258;2023-04-24T00:02:18;19.90;;;2.10;;
5979;SDS011;3016;50.308;8.258;2023-04-24T00:05:19;17.47;;;1.80;;
5979;SDS011;3016;50.308;8.258;2023-04-24T00:08:19;17.63;;;1.80;;
5979;SDS011;3016;50.308;8.258;2023-04-24T00:11:20;17.83;;;2.00;;
5979;SDS011;3016;50.308;8.258;2023-04-24T00:14:21;17.57;;;1.70;;
5979;SDS011;3016;50.308;8.258;2023-04-24T00:17:21;17.60;;;1.97;;
5979;SDS011;3016;50.308;8.258;2023-04-24T00:20:22;18.47;;;2.37;;
5979;SDS011;3016;50.308;8.258;2023-04-24T00:23:23;19.13;;;2.77;;
5979;SDS011;3016;50.308;8.258;2023-04-24T00:26:24;18.67;;;2.20;;
5979;SDS011;3016;50.308;8.258;2023-04-24T00:29:24;18.30;;;2.60;;
5979;SDS011;3016;50.308;8.258;2023-04-24T00:32:25;22.40;;;2.90;;
5979;SDS011;3016;50.308;8.258;2023-04-24T00:35:26;19.30;;;2.67;;
5979;SDS011;3016;50.308;8.258;2023-04-24T00:38:26;18.70;;;2.33;;
5979;SDS011;3016;50.308;8.258;2023-04-24T00:41:27;18.60;;;2.10;;
5979;SDS011;3016;50.308;8.258;2023-04-24T00:44:28;18.87;;;2.33;;
5979;SDS011;3016;50.308;8.258;2023-04-24T00:47:29;19.00;;;2.50;;
5979;SDS011;3016;50.308;8.258;2023-04-24T00:50:30;19.00;;;3.23;;
5979;SDS011;3016;50.308;8.258;2023-04-24T00:53:31;23.17;;;2.73;;
5979;SDS011;3016;50.308;8.258;2023-04-24T00:56:32;18.27;;;2.10;;
5979;SDS011;3016;50.308;8.258;2023-04-24T00:59:33;18.60;;;2.33;;
5979;SDS011;3016;50.308;8.258;2023-04-24T01:02:36;23.27;;;2.60;;
5979;SDS011;3016;50.308;8.258;2023-04-24T01:05:46;19.37;;;2.53;;
5979;SDS011;3016;50.308;8.258;2023-04-24T01:08:48;19.13;;;2.60;;
5979;SDS011;3016;50.308;8.258;2023-04-24T01:11:49;19.57;;;2.80;;
5979;SDS011;3016;50.308;8.258;2023-04-24T01:14:50;18.50;;;2.80;;
5979;SDS011;3016;50.308;8.258;2023-04-24T01:17:51;18.17;;;2.47;;
5979;SDS011;3016;50.308;8.258;2023-04-24T01:20:53;22.20;;;2.40;;
5979;SDS011;3016;50.308;8.258;2023-04-24T01:23:57;17.70;;;2.37;;
5979;SDS011;3016;50.308;8.258;2023-04-24T01:26:58;18.70;;;2.27;;
5979;SDS011;3016;50.308;8.258;2023-04-24T01:29:59;19.00;;;2.27;;
5979;SDS011;3016;50.308;8.258;2023-04-24T01:32:59;19.67;;;2.50;;
5979;SDS011;3016;50.308;8.258;2023-04-24T01:36:01;18.20;;;2.30;;
5979;SDS011;3016;50.308;8.258;2023-04-24T01:39:01;20.37;;;2.20;;
5979;SDS011;3016;50.308;8.258;2023-04-24T01:42:04;25.87;;;2.50;;
5979;SDS011;3016;50.308;8.258;2023-04-24T01:45:05;18.40;;;2.70;;
5979;SDS011;3016;50.308;8.258;2023-04-24T01:48:06;17.73;;;2.57;;
5979;SDS011;3016;50.308;8.258;2023-04-24T01:51:07;17.93;;;2.83;;
5979;SDS011;3016;50.308;8.258;2023-04-24T01:54:08;19.03;;;2.80;;
5979;SDS011;3016;50.308;8.258;2023-04-24T01:57:08;18.63;;;2.60;;
5979;SDS011;3016;50.308;8.258;2023-04-24T02:00:10;17.37;;;2.20;;
5979;SDS011;3016;50.308;8.258;2023-04-24T02:03:11;17.30;;;2.30;;
5979;SDS011;3016;50.308;8.258;2023-04-24T02:06:12;17.23;;;2.17;;
5979;SDS011;3016;50.308;8.258;2023-04-24T02:09:13;17.37;;;2.10;;
5979;SDS011;3016;50.308;8.258;2023-04-24T02:12:14;16.60;;;1.90;;
5979;SDS011;3016;50.308;8.258;2023-04-24T02:15:17;18.47;;;2.17;;
5979;SDS011;3016;50.308;8.258;2023-04-24T02:18:18;17.47;;;2.00;;
5979;SDS011;3016;50.308;8.258;2023-04-24T02:21:18;17.83;;;1.70;;
5979;SDS011;3016;50.308;8.258;2023-04-24T02:24:19;16.93;;;1.80;;
5979;SDS011;3016;50.308;8.258;2023-04-24T02:27:20;17.70;;;1.90;;
5979;SDS011;3016;50.308;8.258;2023-04-24T02:30:20;17.40;;;2.00;;
5979;SDS011;3016;50.308;8.258;2023-04-24T02:33:21;17.93;;;2.20;;
5979;SDS011;3016;50.308;8.258;2023-04-24T02:36:22;17.50;;;2.20;;
5979;SDS011;3016;50.308;8.258;2023-04-24T02:39:22;18.53;;;1.83;;
5979;SDS011;3016;50.308;8.258;2023-04-24T02:42:23;16.47;;;1.67;;
5979;SDS011;3016;50.308;8.258;2023-04-24T02:45:24;21.37;;;2.07;;
5979;SDS011;3016;50.308;8.258;2023-04-24T02:48:24;17.43;;;2.30;;
5979;SDS011;3016;50.308;8.258;2023-04-24T02:51:25;17.43;;;1.77;;
5979;SDS011;3016;50.308;8.258;2023-04-24T02:54:26;18.00;;;1.93;;
5979;SDS011;3016;50.308;8.258;2023-04-24T02:57:27;16.37;;;1.60;;
5979;SDS011;3016;50.308;8.258;2023-04-24T03:00:28;17.53;;;2.37;;
5979;SDS011;3016;50.308;8.258;2023-04-24T03:03:28;17.97;;;2.40;;
5979;SDS011;3016;50.308;8.258;2023-04-24T03:06:29;18.50;;;2.90;;
5979;SDS011;3016;50.308;8.258;2023-04-24T03:09:31;18.00;;;2.57;;
5979;SDS011;3016;50.308;8.258;2023-04-24T03:12:31;18.60;;;2.63;;
5979;SDS011;3016;50.308;8.258;2023-04-24T03:15:32;18.40;;;2.77;;
5979;SDS011;3016;50.308;8.258;2023-04-24T03:18:33;18.70;;;3.23;;
5979;SDS011;3016;50.308;8.258;2023-04-24T03:21:33;21.63;;;2.47;;
5979;SDS011;3016;50.308;8.258;2023-04-24T03:24:35;17.90;;;2.57;;
5979;SDS011;3016;50.308;8.258;2023-04-24T03:27:36;18.77;;;2.23;;
5979;SDS011;3016;50.308;8.258;2023-04-24T03:30:37;17.93;;;2.67;;
5979;SDS011;3016;50.308;8.258;2023-04-24T03:33:38;17.73;;;2.60;;
5979;SDS011;3016;50.308;8.258;2023-04-24T03:36:38;18.27;;;3.10;;
5979;SDS011;3016;50.308;8.258;2023-04-24T03:39:39;18.60;;;2.90;;
5979;SDS011;3016;50.308;8.258;2023-04-24T03:42:40;18.03;;;2.43;;
5979;SDS011;3016;50.308;8.258;2023-04-24T03:45:40;18.50;;;2.50;;
5979;SDS011;3016;50.308;8.258;2023-04-24T03:48:41;17.73;;;2.70;;
5979;SDS011;3016;50.308;8.258;2023-04-24T03:51:42;18.60;;;3.00;;
5979;SDS011;3016;50.308;8.258;2023-04-24T03:54:42;18.90;;;2.93;;
5979;SDS011;3016;50.308;8.258;2023-04-24T03:57:43;18.00;;;2.40;;
5979;SDS011;3016;50.308;8.258;2023-04-24T04:00:44;18.20;;;2.90;;
5979;SDS011;3016;50.308;8.258;2023-04-24T04:03:46;19.40;;;2.47;;
5979;SDS011;3016;50.308;8.258;2023-04-24T04:06:47;19.90;;;3.23;;
5979;SDS011;3016;50.308;8.258;2023-04-24T04:09:48;22.37;;;2.60;;
5979;SDS011;3016;50.308;8.258;2023-04-24T04:12:49;18.60;;;2.80;;
5979;SDS011;3016;50.308;8.258;2023-04-24T04:15:50;20.33;;;2.80;;
5979;SDS011;3016;50.308;8.258;2023-04-24T04:18:50;18.47;;;3.03;;
5979;SDS011;3016;50.308;8.258;2023-04-24T04:21:51;19.17;;;2.97;;
5979;SDS011;3016;50.308;8.258;2023-04-24T04:24:53;19.00;;;2.80;;
5979;SDS011;3016;50.308;8.258;2023-04-24T04:27:54;19.37;;;3.23;;
5979;SDS011;3016;50.308;8.258;2023-04-24T04:30:54;18.37;;;2.57;;
5979;SDS011;3016;50.308;8.258;2023-04-24T04:33:55;19.00;;;3.07;;
5979;SDS011;3016;50.308;8.258;2023-04-24T04:36:56;18.53;;;3.40;;
5979;SDS011;3016;50.308;8.258;2023-04-24T04:39:59;19.67;;;3.40;;
5979;SDS011;3016;50.308;8.258;2023-04-24T04:43:01;20.27;;;3.60;;
5979;SDS011;3016;50.308;8.258;2023-04-24T04:46:02;19.83;;;3.67;;
5979;SDS011;3016;50.308;8.258;2023-04-24T04:49:04;18.47;;;3.27;;
5979;SDS011;3016;50.308;8.258;2023-04-24T04:52:04;19.27;;;3.63;;
5979;SDS011;3016;50.308;8.258;2023-04-24T04:55:05;19.80;;;3.60;;
5979;SDS011;3016;50.308;8.258;2023-04-24T04:58:07;18.33;;;3.23;;
5979;SDS011;3016;50.308;8.258;2023-04-24T05:01:08;18.97;;;2.90;;
5979;SDS011;3016;50.308;8.258;2023-04-24T05:04:08;17.93;;;3.30;;
5979;SDS011;3016;50.308;8.258;2023-04-24T05:07:09;19.97;;;4.10;;
5979;SDS011;3016;50.308;8.258;2023-04-24T05:10:11;19.50;;;4.37;;
5979;SDS011;3016;50.308;8.258;2023-04-24T05:13:11;20.17;;;4.13;;
5979;SDS011;3016;50.308;8.258;2023-04-24T05:16:12;19.30;;;4.00;;
5979;SDS011;3016;50.308;8.258;2023-04-24T05:19:13;21.97;;;4.53;;
5979;SDS011;3016;50.308;8.258;2023-04-24T05:22:14;19.70;;;4.50;;
5979;SDS011;3016;50.308;8.258;2023-04-24T05:25:15;19.80;;;4.00;;
5979;SDS011;3016;50.308;8.258;2023-04-24T05:28:16;20.20;;;4.60;;
5979;SDS011;3016;50.308;8.258;2023-04-24T05:31:16;20.03;;;3.83;;
5979;SDS011;3016;50.308;8.258;2023-04-24T05:34:17;19.80;;;3.90;;
5979;SDS011;3016;50.308;8.258;2023-04-24T05:37:18;19.73;;;4.23;;
5979;SDS011;3016;50.308;8.258;2023-04-24T05:40:19;19.60;;;3.33;;
5979;SDS011;3016;50.308;8.258;2023-04-24T05:43:20;20.33;;;3.50;;
5979;SDS011;3016;50.308;8.258;2023-04-24T05:46:20;19.83;;;3.70;;
5979;SDS011;3016;50.308;8.258;2023-04-24T05:49:21;23.17;;;3.97;;
5979;SDS011;3016;50.308;8.258;2023-04-24T05:52:22;23.60;;;3.77;;
5979;SDS011;3016;50.308;8.258;2023-04-24T05:55:23;19.77;;;3.37;;
5979;SDS011;3016;50.308;8.258;2023-04-24T05:58:25;24.83;;;4.50;;
5979;SDS011;3016;50.308;8.258;2023-04-24T06:01:26;22.07;;;3.77;;
5979;SDS011;3016;50.308;8.258;2023-04-24T06:04:27;18.30;;;2.97;;
5979;SDS011;3016;50.308;8.258;2023-04-24T06:07:27;22.83;;;3.70;;
5979;SDS011;3016;50.308;8.258;2023-04-24T06:10:28;19.70;;;3.77;;
5979;SDS011;3016;50.308;8.258;2023-04-24T06:13:29;23.63;;;4.70;;
5979;SDS011;3016;50.308;8.258;2023-04-24T06:16:29;26.03;;;4.43;;
5979;SDS011;3016;50.308;8.258;2023-04-24T06:19:31;24.50;;;4.20;;
5979;SDS011;3016;50.308;8.258;2023-04-24T06:22:31;24.03;;;4.03;;
5979;SDS011;3016;50.308;8.258;2023-04-24T06:25:32;21.70;;;4.50;;
5979;SDS011;3016;50.308;8.258;2023-04-24T06:28:33;22.67;;;4.53;;
5979;SDS011;3016;50.308;8.258;2023-04-24T06:31:34;21.20;;;4.00;;
5979;SDS011;3016;50.308;8.258;2023-04-24T06:34:36;23.93;;;5.13;;
5979;SDS011;3016;50.308;8.258;2023-04-24T06:37:40;22.07;;;5.27;;
5979;SDS011;3016;50.308;8.258;2023-04-24T06:40:42;23.73;;;4.97;;
5979;SDS011;3016;50.308;8.258;2023-04-24T06:43:43;24.83;;;6.57;;
5979;SDS011;3016;50.308;8.258;2023-04-24T06:46:44;25.10;;;4.37;;
5979;SDS011;3016;50.308;8.258;2023-04-24T06:49:45;21.60;;;4.93;;
5979;SDS011;3016;50.308;8.258;2023-04-24T06:52:46;21.00;;;4.77;;
5979;SDS011;3016;50.308;8.258;2023-04-24T06:55:46;24.90;;;4.70;;
5979;SDS011;3016;50.308;8.258;2023-04-24T06:58:47;21.90;;;4.87;;
5979;SDS011;3016;50.308;8.258;2023-04-24T07:01:48;29.83;;;4.93;;
5979;SDS011;3016;50.308;8.258;2023-04-24T07:04:49;21.77;;;4.67;;
5979;SDS011;3016;50.308;8.258;2023-04-24T07:07:49;21.70;;;4.60;;
5979;SDS011;3016;50.308;8.258;2023-04-24T07:10:51;22.33;;;5.30;;
5979;SDS011;3016;50.308;8.258;2023-04-24T07:13:51;22.60;;;4.70;;
5979;SDS011;3016;50.308;8.258;2023-04-24T07:16:52;21.43;;;4.63;;
5979;SDS011;3016;50.308;8.258;2023-04-24T07:19:53;24.40;;;5.07;;
5979;SDS011;3016;50.308;8.258;2023-04-24T07:22:53;21.03;;;5.00;;
5979;SDS011;3016;50.308;8.258;2023-04-24T07:25:54;21.10;;;4.63;;
5979;SDS011;3016;50.308;8.258;2023-04-24T07:28:55;21.60;;;5.07;;
5979;SDS011;3016;50.308;8.258;2023-04-24T07:31:56;19.93;;;3.37;;
5979;SDS011;3016;50.308;8.258;2023-04-24T07:34:56;21.63;;;4.60;;
5979;SDS011;3016;50.308;8.258;2023-04-24T07:37:57;21.50;;;3.83;;
5979;SDS011;3016;50.308;8.258;2023-04-24T07:40:58;21.03;;;4.67;;
5979;SDS011;3016;50.308;8.258;2023-04-24T07:43:58;20.70;;;3.40;;
5979;SDS011;3016;50.308;8.258;2023-04-24T07:46:59;21.53;;;3.73;;
5979;SDS011;3016;50.308;8.258;2023-04-24T07:50:00;21.70;;;4.20;;
5979;SDS011;3016;50.308;8.258;2023-04-24T07:53:01;21.10;;;3.90;;
5979;SDS011;3016;50.308;8.258;2023-04-24T07:56:02;19.67;;;3.30;;
5979;SDS011;3016;50.308;8.258;2023-04-24T07:59:03;20.97;;;3.70;;
5979;SDS011;3016;50.308;8.258;2023-04-24T08:02:03;20.57;;;3.60;;
5979;SDS011;3016;50.308;8.258;2023-04-24T08:05:06;21.23;;;4.20;;
5979;SDS011;3016;50.308;8.258;2023-04-24T08:08:07;21.87;;;3.43;;
5979;SDS011;3016;50.308;8.258;2023-04-24T08:11:08;19.83;;;3.50;;
5979;SDS011;3016;50.308;8.258;2023-04-24T08:14:09;21.87;;;4.30;;
5979;SDS011;3016;50.308;8.258;2023-04-24T08:17:12;20.27;;;3.43;;
5979;SDS011;3016;50.308;8.258;2023-04-24T08:20:13;19.47;;;3.40;;
5979;SDS011;3016;50.308;8.258;2023-04-24T08:23:13;22.00;;;4.00;;
5979;SDS011;3016;50.308;8.258;2023-04-24T08:26:14;20.63;;;3.47;;
5979;SDS011;3016;50.308;8.258;2023-04-24T08:29:15;19.70;;;2.90;;
5979;SDS011;3016;50.308;8.258;2023-04-24T08:32:16;19.60;;;2.97;;
5979;SDS011;3016;50.308;8.258;2023-04-24T08:35:17;20.20;;;3.50;;
5979;SDS011;3016;50.308;8.258;2023-04-24T08:38:18;20.00;;;3.40;;
5979;SDS011;3016;50.308;8.258;2023-04-24T08:41:19;20.30;;;3.23;;
5979;SDS011;3016;50.308;8.258;2023-04-24T08:44:21;21.80;;;3.93;;
5979;SDS011;3016;50.308;8.258;2023-04-24T08:47:22;20.17;;;3.40;;
5979;SDS011;3016;50.308;8.258;2023-04-24T08:50:24;20.00;;;2.50;;
5979;SDS011;3016;50.308;8.258;2023-04-24T08:53:25;22.00;;;3.30;;
5979;SDS011;3016;50.308;8.258;2023-04-24T08:56:26;19.77;;;3.37;;
5979;SDS011;3016;50.308;8.258;2023-04-24T08:59:30;20.60;;;2.80;;
5979;SDS011;3016;50.308;8.258;2023-04-24T09:02:31;18.93;;;2.83;;
5979;SDS011;3016;50.308;8.258;2023-04-24T09:05:34;19.60;;;2.50;;
5979;SDS011;3016;50.308;8.258;2023-04-24T09:08:34;18.83;;;2.50;;
5979;SDS011;3016;50.308;8.258;2023-04-24T09:11:36;19.07;;;2.40;;
5979;SDS011;3016;50.308;8.258;2023-04-24T09:14:37;19.27;;;2.60;;
5979;SDS011;3016;50.308;8.258;2023-04-24T09:17:43;19.13;;;2.30;;
5979;SDS011;3016;50.308;8.258;2023-04-24T09:20:59;20.57;;;2.83;;
5979;SDS011;3016;50.308;8.258;2023-04-24T09:24:08;20.50;;;3.17;;
5979;SDS011;3016;50.308;8.258;2023-04-24T09:27:22;19.50;;;2.53;;
5979;SDS011;3016;50.308;8.258;2023-04-24T09:30:23;20.03;;;2.80;;
5979;SDS011;3016;50.308;8.258;2023-04-24T09:33:24;22.50;;;2.90;;
5979;SDS011;3016;50.308;8.258;2023-04-24T09:36:32;18.50;;;2.20;;
5979;SDS011;3016;50.308;8.258;2023-04-24T09:39:34;22.30;;;2.70;;
5979;SDS011;3016;50.308;8.258;2023-04-24T09:42:35;18.90;;;2.27;;
5979;SDS011;3016;50.308;8.258;2023-04-24T09:45:36;19.20;;;2.00;;
5979;SDS011;3016;50.308;8.258;2023-04-24T09:48:39;18.97;;;2.20;;
5979;SDS011;3016;50.308;8.258;2023-04-24T09:51:39;19.57;;;2.33;;
5979;SDS011;3016;50.308;8.258;2023-04-24T09:54:40;18.70;;;2.00;;
5979;SDS011;3016;50.308;8.258;2023-04-24T09:57:50;18.93;;;1.80;;
5979;SDS011;3016;50.308;8.258;2023-04-24T10:00:55;18.17;;;1.70;;
5979;SDS011;3016;50.308;8.258;2023-04-24T10:03:56;18.33;;;2.00;;
5979;SDS011;3016;50.308;8.258;2023-04-24T10:06:57;19.10;;;1.93;;
5979;SDS011;3016;50.308;8.258;2023-04-24T10:09:58;18.60;;;1.83;;
5979;SDS011;3016;50.308;8.258;2023-04-24T10:12:59;18.20;;;1.63;;
5979;SDS011;3016;50.308;8.258;2023-04-24T10:16:01;18.80;;;2.20;;
5979;SDS011;3016;50.308;8.258;2023-04-24T10:19:04;18.10;;;1.73;;
5979;SDS011;3016;50.308;8.258;2023-04-24T10:22:05;18.03;;;1.90;;
5979;SDS011;3016;50.308;8.258;2023-04-24T10:25:06;17.87;;;1.77;;
5979;SDS011;3016;50.308;8.258;2023-04-24T10:28:09;19.07;;;1.87;;
5979;SDS011;3016;50.308;8.258;2023-04-24T10:31:10;18.13;;;1.90;;
5979;SDS011;3016;50.308;8.258;2023-04-24T10:34:14;19.67;;;2.10;;
5979;SDS011;3016;50.308;8.258;2023-04-24T10:37:16;19.00;;;2.80;;
5979;SDS011;3016;50.308;8.258;2023-04-24T10:40:25;17.90;;;1.53;;
5979;SDS011;3016;50.308;8.258;2023-04-24T10:43:31;18.57;;;1.93;;
5979;SDS011;3016;50.308;8.258;2023-04-24T10:46:33;18.50;;;1.87;;
5979;SDS011;3016;50.308;8.258;2023-04-24T10:49:34;18.20;;;2.00;;
5979;SDS011;3016;50.308;8.258;2023-04-24T10:52:45;18.10;;;1.70;;
5979;SDS011;3016;50.308;8.258;2023-04-24T10:55:50;19.83;;;1.90;;
5979;SDS011;3016;50.308;8.258;2023-04-24T10:59:13;18.63;;;2.47;;
5979;SDS011;3016;50.308;8.258;2023-04-24T11:02:35;18.07;;;1.77;;
5979;SDS011;3016;50.308;8.258;2023-04-24T11:06:11;19.00;;;2.17;;
5979;SDS011;3016;50.308;8.258;2023-04-24T11:09:07;19.93;;;3.10;;
5979;SDS011;3016;50.308;8.258;2023-04-24T11:12:12;21.03;;;2.30;;
5979;SDS011;3016;50.308;8.258;2023-04-24T11:15:14;19.10;;;2.30;;
5979;SDS011;3016;50.308;8.258;2023-04-24T11:18:19;19.93;;;2.83;;
5979;SDS011;3016;50.308;8.258;2023-04-24T11:21:22;19.00;;;2.40;;
5979;SDS011;3016;50.308;8.258;2023-04-24T11:24:30;19.77;;;2.83;;
5979;SDS011;3016;50.308;8.258;2023-04-24T11:27:51;20.17;;;2.80;;
5979;SDS011;3016;50.308;8.258;2023-04-24T11:34:52;19.57;;;3.20;;
5979;SDS011;3016;50.308;8.258;2023-04-24T11:38:01;20.37;;;3.83;;
5979;SDS011;3016;50.308;8.258;2023-04-24T11:41:02;20.60;;;3.40;;
5979;SDS011;3016;50.308;8.258;2023-04-24T11:44:06;24.07;;;4.43;;
5979;SDS011;3016;50.308;8.258;2023-04-24T11:47:09;24.93;;;4.27;;
5979;SDS011;3016;50.308;8.258;2023-04-24T11:50:16;21.70;;;3.73;;
5979;SDS011;3016;50.308;8.258;2023-04-24T11:53:19;19.90;;;3.40;;
5979;SDS011;3016;50.308;8.258;2023-04-24T11:56:22;23.13;;;3.77;;
5979;SDS011;3016;50.308;8.258;2023-04-24T11:59:23;21.10;;;3.57;;
5979;SDS011;3016;50.308;8.258;2023-04-24T12:02:24;20.87;;;3.27;;
5979;SDS011;3016;50.308;8.258;2023-04-24T12:05:27;22.63;;;3.90;;
5979;SDS011;3016;50.308;8.258;2023-04-24T12:08:31;21.10;;;3.83;;
5979;SDS011;3016;50.308;8.258;2023-04-24T12:11:32;20.40;;;3.30;;
5979;SDS011;3016;50.308;8.258;2023-04-24T12:14:33;22.43;;;4.30;;
5979;SDS011;3016;50.308;8.258;2023-04-24T12:17:45;21.30;;;4.47;;
5979;SDS011;3016;50.308;8.258;2023-04-24T12:20:46;20.30;;;4.37;;
5979;SDS011;3016;50.308;8.258;2023-04-24T12:23:46;23.53;;;5.70;;
5979;SDS011;3016;50.308;8.258;2023-04-24T12:26:48;21.53;;;4.90;;
5979;SDS011;3016;50.308;8.258;2023-04-24T12:29:52;25.00;;;5.50;;
5979;SDS011;3016;50.308;8.258;2023-04-24T12:32:57;22.80;;;4.83;;
5979;SDS011;3016;50.308;8.258;2023-04-24T12:36:00;20.60;;;4.03;;
5979;SDS011;3016;50.308;8.258;2023-04-24T12:39:01;20.67;;;3.80;;
5979;SDS011;3016;50.308;8.258;2023-04-24T12:42:01;22.20;;;4.90;;
5979;SDS011;3016;50.308;8.258;2023-04-24T12:45:03;21.87;;;4.23;;
5979;SDS011;3016;50.308;8.258;2023-04-24T12:48:06;21.50;;;5.03;;
5979;SDS011;3016;50.308;8.258;2023-04-24T12:51:07;23.50;;;5.23;;
5979;SDS011;3016;50.308;8.258;2023-04-24T12:54:08;22.53;;;5.10;;
5979;SDS011;3016;50.308;8.258;2023-04-24T12:57:08;20.93;;;5.40;;
5979;SDS011;3016;50.308;8.258;2023-04-24T13:00:09;24.60;;;6.47;;
5979;SDS011;3016;50.308;8.258;2023-04-24T13:03:11;23.10;;;6.00;;
5979;SDS011;3016;50.308;8.258;2023-04-24T13:06:12;23.30;;;6.13;;
5979;SDS011;3016;50.308;8.258;2023-04-24T13:09:12;26.80;;;6.00;;
5979;SDS011;3016;50.308;8.258;2023-04-24T13:12:13;24.17;;;6.17;;
5979;SDS011;3016;50.308;8.258;2023-04-24T13:15:14;23.20;;;6.07;;
5979;SDS011;3016;50.308;8.258;2023-04-24T13:18:15;24.00;;;6.00;;
5979;SDS011;3016;50.308;8.258;2023-04-24T13:21:15;29.33;;;6.57;;
5979;SDS011;3016;50.308;8.258;2023-04-24T13:24:16;26.50;;;5.97;;
5979;SDS011;3016;50.308;8.258;2023-04-24T13:27:17;29.53;;;4.73;;
5979;SDS011;3016;50.308;8.258;2023-04-24T13:30:18;23.00;;;4.80;;
5979;SDS011;3016;50.308;8.258;2023-04-24T13:33:19;24.03;;;5.50;;
5979;SDS011;3016;50.308;8.258;2023-04-24T13:36:20;30.93;;;6.80;;
5979;SDS011;3016;50.308;8.258;2023-04-24T13:39:21;26.73;;;5.33;;
5979;SDS011;3016;50.308;8.258;2023-04-24T13:42:23;21.40;;;3.80;;
5979;SDS011;3016;50.308;8.258;2023-04-24T13:45:23;21.17;;;4.37;;
5979;SDS011;3016;50.308;8.258;2023-04-24T13:48:24;25.07;;;4.90;;
5979;SDS011;3016;50.308;8.258;2023-04-24T13:51:25;23.50;;;4.70;;
5979;SDS011;3016;50.308;8.258;2023-04-24T13:54:29;23.20;;;3.97;;
5979;SDS011;3016;50.308;8.258;2023-04-24T13:57:29;22.73;;;4.10;;
5979;SDS011;3016;50.308;8.258;2023-04-24T14:00:31;22.13;;;4.10;;
5979;SDS011;3016;50.308;8.258;2023-04-24T14:03:32;24.80;;;5.50;;
5979;SDS011;3016;50.308;8.258;2023-04-24T14:06:33;22.67;;;4.43;;
5979;SDS011;3016;50.308;8.258;2023-04-24T14:09:34;24.90;;;5.43;;
5979;SDS011;3016;50.308;8.258;2023-04-24T14:12:35;22.87;;;5.20;;
5979;SDS011;3016;50.308;8.258;2023-04-24T14:15:36;23.40;;;4.60;;
5979;SDS011;3016;50.308;8.258;2023-04-24T14:18:37;23.27;;;5.70;;
5979;SDS011;3016;50.308;8.258;2023-04-24T14:21:38;23.43;;;5.80;;
5979;SDS011;3016;50.308;8.258;2023-04-24T14:24:38;24.40;;;6.27;;
5979;SDS011;3016;50.308;8.258;2023-04-24T14:27:39;23.60;;;5.40;;
5979;SDS011;3016;50.308;8.258;2023-04-24T14:30:40;23.93;;;5.87;;
5979;SDS011;3016;50.308;8.258;2023-04-24T14:33:41;24.40;;;6.13;;
5979;SDS011;3016;50.308;8.258;2023-04-24T14:36:41;29.50;;;5.83;;
5979;SDS011;3016;50.308;8.258;2023-04-24T14:39:42;24.40;;;6.07;;
5979;SDS011;3016;50.308;8.258;2023-04-24T14:42:43;24.33;;;5.80;;
5979;SDS011;3016;50.308;8.258;2023-04-24T14:45:43;23.20;;;4.60;;
5979;SDS011;3016;50.308;8.258;2023-04-24T14:48:44;22.67;;;5.53;;
5979;SDS011;3016;50.308;8.258;2023-04-24T14:51:45;23.17;;;4.90;;
5979;SDS011;3016;50.308;8.258;2023-04-24T14:54:45;27.93;;;5.50;;
5979;SDS011;3016;50.308;8.258;2023-04-24T14:57:46;22.30;;;4.67;;
5979;SDS011;3016;50.308;8.258;2023-04-24T15:00:47;24.57;;;5.67;;
5979;SDS011;3016;50.308;8.258;2023-04-24T15:03:51;22.53;;;5.53;;
5979;SDS011;3016;50.308;8.258;2023-04-24T15:06:52;22.50;;;4.73;;
5979;SDS011;3016;50.308;8.258;2023-04-24T15:09:54;22.70;;;5.13;;
5979;SDS011;3016;50.308;8.258;2023-04-24T15:12:56;23.70;;;4.63;;
5979;SDS011;3016;50.308;8.258;2023-04-24T15:15:57;23.40;;;6.00;;
5979;SDS011;3016;50.308;8.258;2023-04-24T15:18:57;22.53;;;4.67;;
5979;SDS011;3016;50.308;8.258;2023-04-24T15:21:58;23.43;;;5.80;;
5979;SDS011;3016;50.308;8.258;2023-04-24T15:24:59;26.47;;;5.30;;
5979;SDS011;3016;50.308;8.258;2023-04-24T15:27:59;24.47;;;5.23;;
5979;SDS011;3016;50.308;8.258;2023-04-24T15:31:00;22.07;;;5.60;;
5979;SDS011;3016;50.308;8.258;2023-04-24T15:34:01;23.67;;;5.33;;
5979;SDS011;3016;50.308;8.258;2023-04-24T15:37:01;23.87;;;5.20;;
5979;SDS011;3016;50.308;8.258;2023-04-24T15:40:02;23.07;;;4.40;;
5979;SDS011;3016;50.308;8.258;2023-04-24T15:43:05;24.27;;;4.47;;
5979;SDS011;3016;50.308;8.258;2023-04-24T15:46:06;22.67;;;4.80;;
5979;SDS011;3016;50.308;8.258;2023-04-24T15:49:06;24.07;;;5.37;;
5979;SDS011;3016;50.308;8.258;2023-04-24T15:52:07;21.80;;;4.70;;
5979;SDS011;3016;50.308;8.258;2023-04-24T15:55:09;23.90;;;5.20;;
5979;SDS011;3016;50.308;8.258;2023-04-24T15:58:10;23.37;;;5.27;;
5979;SDS011;3016;50.308;8.258;2023-04-24T16:01:11;23.17;;;5.30;;
5979;SDS011;3016;50.308;8.258;2023-04-24T16:04:12;24.53;;;5.47;;
5979;SDS011;3016;50.308;8.258;2023-04-24T16:07:15;22.63;;;5.00;;
5979;SDS011;3016;50.308;8.258;2023-04-24T16:10:17;21.50;;;4.90;;
5979;SDS011;3016;50.308;8.258;2023-04-24T16:13:17;23.30;;;5.33;;
5979;SDS011;3016;50.308;8.258;2023-04-24T16:16:18;24.80;;;4.73;;
5979;SDS011;3016;50.308;8.258;2023-04-24T16:19:19;22.60;;;5.07;;
5979;SDS011;3016;50.308;8.258;2023-04-24T16:22:20;25.00;;;6.30;;
5979;SDS011;3016;50.308;8.258;2023-04-24T16:25:21;23.47;;;5.70;;
5979;SDS011;3016;50.308;8.258;2023-04-24T16:28:21;23.80;;;5.87;;
5979;SDS011;3016;50.308;8.258;2023-04-24T16:31:22;27.73;;;5.97;;
5979;SDS011;3016;50.308;8.258;2023-04-24T16:34:23;22.57;;;5.00;;
5979;SDS011;3016;50.308;8.258;2023-04-24T16:37:23;27.03;;;6.97;;
5979;SDS011;3016;50.308;8.258;2023-04-24T16:40:25;24.60;;;5.80;;
5979;SDS011;3016;50.308;8.258;2023-04-24T16:43:25;23.73;;;5.50;;
5979;SDS011;3016;50.308;8.258;2023-04-24T16:46:26;20.30;;;5.43;;
5979;SDS011;3016;50.308;8.258;2023-04-24T16:49:27;20.97;;;5.60;;
5979;SDS011;3016;50.308;8.258;2023-04-24T16:52:29;18.53;;;5.20;;
5979;SDS011;3016;50.308;8.258;2023-04-24T16:55:30;17.40;;;4.40;;
5979;SDS011;3016;50.308;8.258;2023-04-24T16:58:31;16.77;;;4.20;;
5979;SDS011;3016;50.308;8.258;2023-04-24T17:01:31;17.40;;;4.60;;
5979;SDS011;3016;50.308;8.258;2023-04-24T17:04:33;16.40;;;4.20;;
5979;SDS011;3016;50.308;8.258;2023-04-24T17:07:37;14.97;;;3.50;;
5979;SDS011;3016;50.308;8.258;2023-04-24T17:10:37;16.33;;;3.57;;
5979;SDS011;3016;50.308;8.258;2023-04-24T17:13:40;18.10;;;5.40;;
5979;SDS011;3016;50.308;8.258;2023-04-24T17:16:40;17.57;;;3.90;;
5979;SDS011;3016;50.308;8.258;2023-04-24T17:19:41;18.03;;;4.50;;
5979;SDS011;3016;50.308;8.258;2023-04-24T17:22:42;16.77;;;4.17;;
5979;SDS011;3016;50.308;8.258;2023-04-24T17:25:43;18.37;;;4.30;;
5979;SDS011;3016;50.308;8.258;2023-04-24T17:28:43;19.67;;;4.43;;
5979;SDS011;3016;50.308;8.258;2023-04-24T17:31:44;16.67;;;4.50;;
5979;SDS011;3016;50.308;8.258;2023-04-24T17:34:50;17.67;;;5.00;;
5979;SDS011;3016;50.308;8.258;2023-04-24T17:37:51;17.67;;;4.80;;
5979;SDS011;3016;50.308;8.258;2023-04-24T17:40:52;16.60;;;4.40;;
5979;SDS011;3016;50.308;8.258;2023-04-24T17:43:52;17.47;;;3.83;;
5979;SDS011;3016;50.308;8.258;2023-04-24T17:46:53;18.80;;;5.07;;
5979;SDS011;3016;50.308;8.258;2023-04-24T17:49:56;17.23;;;4.63;;
5979;SDS011;3016;50.308;8.258;2023-04-24T17:52:57;26.10;;;6.73;;
5979;SDS011;3016;50.308;8.258;2023-04-24T17:55:59;23.00;;;8.57;;
5979;SDS011;3016;50.308;8.258;2023-04-24T17:59:02;22.10;;;7.20;;
5979;SDS011;3016;50.308;8.258;2023-04-24T18:02:02;21.77;;;7.50;;
5979;SDS011;3016;50.308;8.258;2023-04-24T18:05:03;26.57;;;9.70;;
5979;SDS011;3016;50.308;8.258;2023-04-24T18:08:04;30.63;;;11.77;;
5979;SDS011;3016;50.308;8.258;2023-04-24T18:11:05;24.00;;;8.73;;
5979;SDS011;3016;50.308;8.258;2023-04-24T18:14:06;20.73;;;5.77;;
5979;SDS011;3016;50.308;8.258;2023-04-24T18:17:06;21.20;;;6.87;;
5979;SDS011;3016;50.308;8.258;2023-04-24T18:20:08;19.10;;;5.10;;
5979;SDS011;3016;50.308;8.258;2023-04-24T18:23:10;17.33;;;4.97;;
5979;SDS011;3016;50.308;8.258;2023-04-24T18:26:11;29.03;;;6.97;;
5979;SDS011;3016;50.308;8.258;2023-04-24T18:29:15;36.03;;;13.00;;
5979;SDS011;3016;50.308;8.258;2023-04-24T18:32:16;21.93;;;7.90;;
5979;SDS011;3016;50.308;8.258;2023-04-24T18:35:17;25.03;;;7.43;;